Time;durP1;ratioP1;P1;durP2;ratioP2;P2;SDS_P1;SDS_P2;PMS_P1;PMS_P2;Temp;Humidity;BMP_temperature;BMP_pressure;BME280_temperature;BME280_humidity;BME280_pressure;Samples;Min_cycle;Max_cycle;Signal;HPM_P1;HPM_P2
2022/08/09 00:02:06;;;;;;;;;;;23.10;49.10;;;;;;5093503;28;19936;-65
2022/08/09 00:04:33;;;;;;;;;;;23.10;49.10;;;;;;5078538;28;19971;-64
2022/08/09 00:07:01;;;;;;;;;;;23.10;49.20;;;;;;5096784;28;19966;-65
2022/08/09 00:09:28;;;;;;;;;;;23.10;49.20;;;;;;5080492;28;19920;-65
2022/08/09 00:11:55;;;;;;;;;;;23.10;49.20;;;;;;5100662;28;19969;-65
2022/08/09 00:14:22;;;;;;;;;;;23.10;49.20;;;;;;5092394;28;19954;-65
2022/08/09 00:16:49;;;;;;;;;;;23.10;49.20;;;;;;5077837;28;19920;-65
2022/08/09 00:19:15;;;;;;;;;;;23.10;49.20;;;;;;5072695;28;19920;-64
2022/08/09 00:21:42;;;;;;;;;;;23.10;49.20;;;;;;5094981;28;19936;-64
2022/08/09 00:24:10;;;;;;;;;;;23.10;49.20;;;;;;5091280;28;19966;-64
2022/08/09 00:26:37;;;;;;;;;;;23.10;49.10;;;;;;5088535;28;19927;-65
2022/08/09 00:29:04;;;;;;;;;;;23.10;49.10;;;;;;5094892;28;19924;-65
2022/08/09 00:31:31;;;;;;;;;;;23.10;49.10;;;;;;5087954;28;20303;-64
2022/08/09 00:33:58;;;;;;;;;;;23.10;49.10;;;;;;5090991;28;19920;-65
2022/08/09 00:36:25;;;;;;;;;;;23.10;49.10;;;;;;5087672;28;19935;-65
2022/08/09 00:38:51;;;;;;;;;;;23.10;49.10;;;;;;5097897;27;20273;-65
2022/08/09 00:41:21;;;;;;;;;;;23.10;49.10;;;;;;5095662;28;19971;-64
2022/08/09 00:43:48;;;;;;;;;;;23.10;49.10;;;;;;5086342;28;20285;-65
2022/08/09 00:46:15;;;;;;;;;;;23.10;49.70;;;;;;5108472;27;19920;-65
2022/08/09 00:48:42;;;;;;;;;;;23.10;49.10;;;;;;5111705;27;20025;-65
2022/08/09 00:51:09;;;;;;;;;;;23.10;49.10;;;;;;5096940;28;19920;-65
2022/08/09 00:53:36;;;;;;;;;;;23.10;49.10;;;;;;5077345;28;19935;-65
2022/08/09 00:56:03;;;;;;;;;;;23.10;49.10;;;;;;5099092;28;20359;-64
2022/08/09 00:58:34;;;;;;;;;;;23.10;49.00;;;;;;5091110;28;19920;-65
2022/08/09 01:01:01;;;;;;;;;;;23.10;49.00;;;;;;5085720;28;19920;-65
2022/08/09 01:03:29;;;;;;;;;;;23.10;49.00;;;;;;5078282;28;19924;-65
2022/08/09 01:05:57;;;;;;;;;;;23.10;49.00;;;;;;5064547;28;19928;-64
2022/08/09 01:08:26;;;;;;;;;;;23.10;49.00;;;;;;5093637;28;19920;-65
2022/08/09 01:10:54;;;;;;;;;;;23.10;49.00;;;;;;5089425;28;19927;-64
2022/08/09 01:13:23;;;;;;;;;;;23.10;49.00;;;;;;5081209;28;19928;-64
2022/08/09 01:15:52;;;;;;;;;;;23.00;48.90;;;;;;5088218;28;19928;-65
2022/08/09 01:18:19;;;;;;;;;;;23.10;49.00;;;;;;5102396;27;19920;-65
2022/08/09 01:20:48;;;;;;;;;;;23.00;48.90;;;;;;5117203;27;20015;-64
2022/08/09 01:23:23;;;;;;;;;;;23.00;49.00;;;;;;5079719;28;19928;-65
2022/08/09 01:25:55;;;;;;;;;;;23.00;49.00;;;;;;5092963;28;19927;-65
2022/08/09 01:28:23;;;;;;;;;;;23.00;49.00;;;;;;5080980;28;19928;-65
2022/08/09 01:30:50;;;;;;;;;;;23.00;48.90;;;;;;5069248;28;19932;-64
2022/08/09 01:33:17;;;;;;;;;;;23.00;48.90;;;;;;5064431;28;20365;-65
2022/08/09 01:35:45;;;;;;;;;;;23.00;48.90;;;;;;5081187;28;19936;-65
2022/08/09 01:38:13;;;;;;;;;;;23.00;48.90;;;;;;5087833;28;19926;-65
2022/08/09 01:40:41;;;;;;;;;;;23.00;48.90;;;;;;5065988;28;20365;-65
2022/08/09 01:43:09;;;;;;;;;;;23.00;48.90;;;;;;5099250;27;19924;-65
2022/08/09 01:45:38;;;;;;;;;;;23.00;48.90;;;;;;5078284;28;20222;-65
2022/08/09 01:48:05;;;;;;;;;;;23.00;48.90;;;;;;5067729;28;19924;-65
2022/08/09 01:50:32;;;;;;;;;;;23.00;48.80;;;;;;5090114;28;19924;-65
2022/08/09 01:52:59;;;;;;;;;;;23.00;48.90;;;;;;5081175;28;20293;-64
2022/08/09 01:55:26;;;;;;;;;;;23.00;48.80;;;;;;5076968;28;19942;-64
2022/08/09 01:57:53;;;;;;;;;;;23.00;48.80;;;;;;5059212;28;20333;-64
2022/08/09 02:00:21;;;;;;;;;;;23.00;48.80;;;;;;5097918;27;19920;-64
2022/08/09 02:02:50;;;;;;;;;;;23.00;48.80;;;;;;5081966;28;19978;-65
2022/08/09 02:05:18;;;;;;;;;;;23.00;48.80;;;;;;5107099;27;19928;-64
2022/08/09 02:07:45;;;;;;;;;;;22.90;48.80;;;;;;5077609;28;20349;-64
2022/08/09 02:10:13;;;;;;;;;;;23.00;48.80;;;;;;5085423;28;19920;-64
2022/08/09 02:12:40;;;;;;;;;;;23.00;48.80;;;;;;5084523;28;19926;-64
2022/08/09 02:15:08;;;;;;;;;;;23.00;48.80;;;;;;5100425;27;20010;-65
2022/08/09 02:17:34;;;;;;;;;;;23.00;48.80;;;;;;5078605;28;19924;-64
2022/08/09 02:20:03;;;;;;;;;;;23.00;48.80;;;;;;5105109;28;19921;-64
2022/08/09 02:22:30;;;;;;;;;;;23.00;48.80;;;;;;5084515;28;19920;-64
2022/08/09 02:24:58;;;;;;;;;;;23.00;48.80;;;;;;5098174;28;19986;-64
2022/08/09 02:27:25;;;;;;;;;;;23.00;48.80;;;;;;5074665;28;19932;-64
2022/08/09 02:29:52;;;;;;;;;;;22.90;48.70;;;;;;5061346;28;20019;-64
2022/08/09 02:32:19;;;;;;;;;;;22.90;48.70;;;;;;5085361;28;19927;-64
2022/08/09 02:34:47;;;;;;;;;;;22.90;48.70;;;;;;5096443;27;19932;-65
2022/08/09 02:37:16;;;;;;;;;;;23.00;48.80;;;;;;5086530;28;19990;-64
2022/08/09 02:39:44;;;;;;;;;;;22.90;48.70;;;;;;5083801;28;20479;-64
2022/08/09 02:42:15;;;;;;;;;;;22.90;48.70;;;;;;5072336;28;19919;-65
2022/08/09 02:44:43;;;;;;;;;;;22.90;48.70;;;;;;5072811;28;19920;-64
2022/08/09 02:47:10;;;;;;;;;;;22.90;48.70;;;;;;5089304;28;19924;-65
2022/08/09 02:49:38;;;;;;;;;;;22.90;48.70;;;;;;5089488;28;19926;-64
2022/08/09 02:52:05;;;;;;;;;;;22.90;48.70;;;;;;5069269;28;20274;-64
2022/08/09 02:54:33;;;;;;;;;;;22.90;48.70;;;;;;5072552;28;19978;-64
2022/08/09 02:57:01;;;;;;;;;;;22.90;48.70;;;;;;5091242;28;19927;-65
2022/08/09 02:59:27;;;;;;;;;;;22.90;48.70;;;;;;5088361;28;19939;-65
2022/08/09 03:01:57;;;;;;;;;;;22.90;48.60;;;;;;5078732;28;19956;-65
2022/08/09 03:04:24;;;;;;;;;;;22.90;48.70;;;;;;5060114;28;19928;-65
2022/08/09 03:06:51;;;;;;;;;;;22.90;48.70;;;;;;5121128;27;19930;-65
2022/08/09 03:09:19;;;;;;;;;;;22.90;48.70;;;;;;5083131;28;20031;-65
2022/08/09 03:11:47;;;;;;;;;;;22.90;48.70;;;;;;5079794;28;20369;-65
2022/08/09 03:14:13;;;;;;;;;;;22.90;48.70;;;;;;5114663;27;19969;-65
2022/08/09 03:16:41;;;;;;;;;;;22.90;48.70;;;;;;5081442;28;19920;-65
2022/08/09 03:19:07;;;;;;;;;;;22.90;48.80;;;;;;5088749;28;20354;-65
2022/08/09 03:21:35;;;;;;;;;;;22.90;48.80;;;;;;5088907;28;19924;-64
2022/08/09 03:24:01;;;;;;;;;;;22.90;49.00;;;;;;5080553;28;19974;-65
2022/08/09 03:26:28;;;;;;;;;;;22.90;48.90;;;;;;5070404;28;20010;-65
2022/08/09 03:28:58;;;;;;;;;;;22.90;48.90;;;;;;5078503;28;19920;-64
2022/08/09 03:31:25;;;;;;;;;;;22.90;48.90;;;;;;5087248;28;19920;-65
2022/08/09 03:33:51;;;;;;;;;;;22.90;48.90;;;;;;5094138;28;19927;-65
2022/08/09 03:36:18;;;;;;;;;;;22.90;48.90;;;;;;5074794;28;19967;-65
2022/08/09 03:38:45;;;;;;;;;;;22.90;48.90;;;;;;5089214;28;19920;-65
2022/08/09 03:41:12;;;;;;;;;;;22.80;48.80;;;;;;5092154;28;20253;-65
2022/08/09 03:43:38;;;;;;;;;;;22.90;48.90;;;;;;5097043;28;19951;-64
2022/08/09 03:46:07;;;;;;;;;;;22.80;48.80;;;;;;5098968;28;19974;-65
2022/08/09 03:48:33;;;;;;;;;;;22.90;48.90;;;;;;5079574;28;19966;-65
2022/08/09 03:51:00;;;;;;;;;;;22.90;48.90;;;;;;5073740;28;19928;-65
2022/08/09 03:53:27;;;;;;;;;;;22.90;48.90;;;;;;5070152;28;20406;-64
2022/08/09 03:55:54;;;;;;;;;;;22.90;49.00;;;;;;5103050;28;19978;-65
2022/08/09 03:58:20;;;;;;;;;;;22.80;48.90;;;;;;5109923;28;20430;-64
2022/08/09 04:00:47;;;;;;;;;;;22.80;48.90;;;;;;5070499;28;19931;-65
2022/08/09 04:03:15;;;;;;;;;;;22.80;48.90;;;;;;5084191;28;20010;-65
2022/08/09 04:05:42;;;;;;;;;;;22.80;48.90;;;;;;5089588;28;19920;-64
2022/08/09 04:08:09;;;;;;;;;;;22.80;48.90;;;;;;5093596;28;20243;-65
2022/08/09 04:10:35;;;;;;;;;;;22.80;48.90;;;;;;5087890;28;19974;-64
2022/08/09 04:13:08;;;;;;;;;;;22.80;48.90;;;;;;5101178;28;19950;-65
2022/08/09 04:15:35;;;;;;;;;;;22.80;48.90;;;;;;5087234;28;20389;-64
2022/08/09 04:18:02;;;;;;;;;;;22.80;48.90;;;;;;5092975;28;19933;-65
2022/08/09 04:20:30;;;;;;;;;;;22.80;48.90;;;;;;5069962;28;20373;-64
2022/08/09 04:22:57;;;;;;;;;;;22.80;48.90;;;;;;5101153;28;19947;-65
2022/08/09 04:25:24;;;;;;;;;;;22.80;48.90;;;;;;5072417;28;20015;-64
2022/08/09 04:27:50;;;;;;;;;;;22.80;48.90;;;;;;5107340;28;19973;-65
2022/08/09 04:30:18;;;;;;;;;;;22.80;48.90;;;;;;5091704;28;19920;-65
2022/08/09 04:32:45;;;;;;;;;;;22.80;48.90;;;;;;5094472;28;19928;-65
2022/08/09 04:35:12;;;;;;;;;;;22.80;48.90;;;;;;5081582;28;20023;-65
2022/08/09 04:37:40;;;;;;;;;;;22.80;48.80;;;;;;5103982;28;20461;-65
2022/08/09 04:40:07;;;;;;;;;;;22.80;48.80;;;;;;5092021;28;19932;-65
2022/08/09 04:42:34;;;;;;;;;;;22.70;48.70;;;;;;5083168;28;20478;-64
2022/08/09 04:45:01;;;;;;;;;;;22.80;48.80;;;;;;5098199;28;19924;-64
2022/08/09 04:47:28;;;;;;;;;;;22.80;48.80;;;;;;5091063;28;19970;-64
2022/08/09 04:49:55;;;;;;;;;;;22.70;48.70;;;;;;5074221;28;19962;-64
2022/08/09 04:52:22;;;;;;;;;;;22.70;48.80;;;;;;5106894;27;19920;-65
2022/08/09 04:54:51;;;;;;;;;;;22.80;48.90;;;;;;5101445;28;20285;-65
2022/08/09 04:57:18;;;;;;;;;;;22.80;48.80;;;;;;5081982;28;20011;-64
2022/08/09 04:59:44;;;;;;;;;;;22.80;48.90;;;;;;5073696;28;20308;-65
2022/08/09 05:02:12;;;;;;;;;;;22.80;48.90;;;;;;5088503;28;19997;-64
2022/08/09 05:04:39;;;;;;;;;;;22.80;48.90;;;;;;5089268;28;19927;-65
2022/08/09 05:07:06;;;;;;;;;;;22.80;49.00;;;;;;5074896;28;20387;-65
2022/08/09 05:09:33;;;;;;;;;;;22.80;49.00;;;;;;5077866;28;20015;-65
2022/08/09 05:12:01;;;;;;;;;;;22.70;48.90;;;;;;5098648;28;20194;-65
2022/08/09 05:14:30;;;;;;;;;;;22.70;48.90;;;;;;5079171;28;19927;-64
2022/08/09 05:16:58;;;;;;;;;;;22.70;49.00;;;;;;5095460;28;19951;-65
2022/08/09 05:19:26;;;;;;;;;;;22.70;49.00;;;;;;5097998;28;19927;-65
2022/08/09 05:21:52;;;;;;;;;;;22.70;49.00;;;;;;5082994;28;19923;-65
2022/08/09 05:24:19;;;;;;;;;;;22.70;49.10;;;;;;5098596;28;19931;-65
2022/08/09 05:26:46;;;;;;;;;;;22.70;49.10;;;;;;5097047;28;20384;-64
2022/08/09 05:29:18;;;;;;;;;;;22.70;49.10;;;;;;5073721;28;20011;-64
2022/08/09 05:31:45;;;;;;;;;;;22.70;49.10;;;;;;5081959;28;19955;-65
2022/08/09 05:34:11;;;;;;;;;;;22.80;49.20;;;;;;5092303;28;20077;-65
2022/08/09 05:36:38;;;;;;;;;;;22.80;49.30;;;;;;5098835;28;20328;-65
2022/08/09 05:39:05;;;;;;;;;;;22.70;49.80;;;;;;5098789;28;19935;-65
2022/08/09 05:41:32;;;;;;;;;;;22.80;49.30;;;;;;5070323;28;19920;-65
2022/08/09 05:43:59;;;;;;;;;;;22.70;49.20;;;;;;5093494;28;19920;-65
2022/08/09 05:46:27;;;;;;;;;;;22.70;49.30;;;;;;5095805;28;19920;-65
2022/08/09 05:48:54;;;;;;;;;;;22.80;49.30;;;;;;5077302;28;19924;-66
2022/08/09 05:51:21;;;;;;;;;;;22.80;49.30;;;;;;5093001;28;19991;-65
2022/08/09 05:53:48;;;;;;;;;;;22.80;49.30;;;;;;5079405;28;19920;-65
2022/08/09 05:56:14;;;;;;;;;;;22.80;49.40;;;;;;5112803;27;19924;-65
2022/08/09 05:58:41;;;;;;;;;;;22.80;49.50;;;;;;5096415;28;19930;-65
2022/08/09 06:01:08;;;;;;;;;;;22.70;49.40;;;;;;5065907;28;19977;-65
2022/08/09 06:03:37;;;;;;;;;;;22.80;49.50;;;;;;5106555;28;19973;-65
2022/08/09 06:06:04;;;;;;;;;;;22.80;49.50;;;;;;5073298;28;19977;-65
2022/08/09 06:08:30;;;;;;;;;;;22.80;49.50;;;;;;5104843;27;19931;-65
2022/08/09 06:10:57;;;;;;;;;;;22.70;49.50;;;;;;5108657;27;19986;-65
2022/08/09 06:13:24;;;;;;;;;;;22.80;49.60;;;;;;5099109;28;19935;-65
2022/08/09 06:15:51;;;;;;;;;;;22.70;49.50;;;;;;5074993;28;20410;-65
2022/08/09 06:18:18;;;;;;;;;;;22.70;49.50;;;;;;5092769;28;19923;-65
2022/08/09 06:20:46;;;;;;;;;;;22.70;49.50;;;;;;5101100;28;19927;-65
2022/08/09 06:23:13;;;;;;;;;;;22.70;49.50;;;;;;5088700;28;19920;-65
2022/08/09 06:25:40;;;;;;;;;;;22.70;49.60;;;;;;5098309;28;19973;-65
2022/08/09 06:28:07;;;;;;;;;;;22.80;49.60;;;;;;5080686;28;19919;-65
2022/08/09 06:30:34;;;;;;;;;;;22.70;49.60;;;;;;5090034;28;19932;-65
2022/08/09 06:33:00;;;;;;;;;;;22.80;49.70;;;;;;5094855;28;19966;-65
2022/08/09 06:35:27;;;;;;;;;;;22.80;49.70;;;;;;5077741;28;20021;-65
2022/08/09 06:37:55;;;;;;;;;;;22.80;49.80;;;;;;5096690;28;19964;-65
2022/08/09 06:40:22;;;;;;;;;;;22.70;49.70;;;;;;5098553;28;19930;-65
2022/08/09 06:42:49;;;;;;;;;;;22.80;49.70;;;;;;5072249;28;20018;-65
2022/08/09 06:45:15;;;;;;;;;;;22.80;49.80;;;;;;5077497;28;19973;-65
2022/08/09 06:47:42;;;;;;;;;;;22.80;49.80;;;;;;5091879;28;19924;-65
2022/08/09 06:50:09;;;;;;;;;;;22.80;49.90;;;;;;5099737;28;19926;-66
2022/08/09 06:52:38;;;;;;;;;;;22.70;49.90;;;;;;5111108;27;19920;-65
2022/08/09 06:55:08;;;;;;;;;;;22.80;49.90;;;;;;5096492;28;19931;-65
2022/08/09 06:57:34;;;;;;;;;;;22.80;50.00;;;;;;5082074;28;19920;-65
2022/08/09 07:00:02;;;;;;;;;;;22.80;50.00;;;;;;5109329;27;20388;-65
2022/08/09 07:02:28;;;;;;;;;;;22.80;50.10;;;;;;5069039;28;19946;-65
2022/08/09 07:04:55;;;;;;;;;;;22.80;50.10;;;;;;5074257;28;19951;-65
2022/08/09 07:07:22;;;;;;;;;;;22.80;50.10;;;;;;5104618;28;20316;-65
2022/08/09 07:09:49;;;;;;;;;;;22.80;50.10;;;;;;5075138;28;20014;-65
2022/08/09 07:12:17;;;;;;;;;;;22.80;50.10;;;;;;5064649;28;19927;-64
2022/08/09 07:14:43;;;;;;;;;;;22.80;50.10;;;;;;5101722;28;19920;-65
2022/08/09 07:17:11;;;;;;;;;;;22.80;50.70;;;;;;5091093;28;19928;-63
2022/08/09 07:19:38;;;;;;;;;;;22.80;50.10;;;;;;5097052;28;19920;-64
2022/08/09 07:22:05;;;;;;;;;;;22.80;50.20;;;;;;5080326;28;19920;-65
2022/08/09 07:24:31;;;;;;;;;;;22.80;50.20;;;;;;5094023;28;19924;-65
2022/08/09 07:26:58;;;;;;;;;;;22.80;50.20;;;;;;5097366;28;19920;-65
2022/08/09 07:29:26;;;;;;;;;;;22.80;50.20;;;;;;5094667;28;19932;-65
2022/08/09 07:31:53;;;;;;;;;;;22.80;50.20;;;;;;5099848;28;19924;-64
2022/08/09 07:34:20;;;;;;;;;;;22.80;50.30;;;;;;5081088;28;19961;-64
2022/08/09 07:36:47;;;;;;;;;;;22.80;50.30;;;;;;5099251;28;19955;-64
2022/08/09 07:39:14;;;;;;;;;;;22.90;50.30;;;;;;5115374;28;19931;-64
2022/08/09 07:41:40;;;;;;;;;;;22.90;50.40;;;;;;5100535;28;19932;-65
2022/08/09 07:44:07;;;;;;;;;;;22.90;50.40;;;;;;5112191;28;19990;-65
2022/08/09 07:46:35;;;;;;;;;;;22.90;50.40;;;;;;5074800;28;20323;-64
2022/08/09 07:49:02;;;;;;;;;;;22.90;50.40;;;;;;5112919;28;20006;-64
2022/08/09 07:51:29;;;;;;;;;;;22.90;50.40;;;;;;5089806;28;19972;-65
2022/08/09 07:53:56;;;;;;;;;;;22.90;50.40;;;;;;5092716;28;19920;-65
2022/08/09 07:56:24;;;;;;;;;;;22.90;50.40;;;;;;5071436;28;19959;-65
2022/08/09 07:58:51;;;;;;;;;;;22.90;50.40;;;;;;5080666;28;19924;-65
2022/08/09 08:01:18;;;;;;;;;;;22.90;50.40;;;;;;5096945;28;19928;-65
2022/08/09 08:03:46;;;;;;;;;;;22.90;50.40;;;;;;5102212;28;20370;-66
2022/08/09 08:06:12;;;;;;;;;;;22.90;50.50;;;;;;5102785;28;20287;-64
2022/08/09 08:08:39;;;;;;;;;;;22.90;50.50;;;;;;5099474;28;19919;-65
2022/08/09 08:11:06;;;;;;;;;;;22.90;50.50;;;;;;5101683;28;20607;-65
2022/08/09 08:13:33;;;;;;;;;;;23.00;50.60;;;;;;5105807;28;19979;-65
2022/08/09 08:16:00;;;;;;;;;;;23.00;50.60;;;;;;5100890;28;19975;-65
2022/08/09 08:18:26;;;;;;;;;;;23.00;50.60;;;;;;5091287;28;20030;-66
2022/08/09 08:20:54;;;;;;;;;;;23.00;50.60;;;;;;5098111;28;19931;-64
2022/08/09 08:23:22;;;;;;;;;;;23.00;50.60;;;;;;5084223;28;19931;-64
2022/08/09 08:25:49;;;;;;;;;;;23.00;50.60;;;;;;5092791;28;19979;-64
2022/08/09 08:28:16;;;;;;;;;;;23.00;50.60;;;;;;5092803;28;19936;-64
2022/08/09 08:30:43;;;;;;;;;;;23.00;50.60;;;;;;5095964;28;19981;-64
2022/08/09 08:33:09;;;;;;;;;;;23.00;50.60;;;;;;5095650;28;20266;-64
2022/08/09 08:35:36;;;;;;;;;;;23.00;50.60;;;;;;5094791;28;19939;-67
2022/08/09 08:38:04;;;;;;;;;;;23.10;50.60;;;;;;5057106;28;19963;-67
2022/08/09 08:40:31;;;;;;;;;;;23.10;50.60;;;;;;5080242;28;20308;-66
2022/08/09 08:42:58;;;;;;;;;;;23.10;50.60;;;;;;5078862;28;20303;-65
2022/08/09 08:45:27;;;;;;;;;;;23.10;50.60;;;;;;5098874;28;19956;-64
2022/08/09 08:47:53;;;;;;;;;;;23.10;50.60;;;;;;5113263;27;19924;-66
2022/08/09 08:50:20;;;;;;;;;;;23.10;50.60;;;;;;5090277;28;20373;-66
2022/08/09 08:52:47;;;;;;;;;;;23.10;50.60;;;;;;5096139;28;19932;-67
2022/08/09 08:55:15;;;;;;;;;;;23.10;50.60;;;;;;5097597;28;20035;-67
2022/08/09 08:57:42;;;;;;;;;;;23.10;50.60;;;;;;5075819;28;19920;-64
2022/08/09 09:00:09;;;;;;;;;;;23.10;50.70;;;;;;5084170;28;19919;-64
2022/08/09 09:02:36;;;;;;;;;;;23.10;50.70;;;;;;5095609;28;20018;-64
2022/08/09 09:05:03;;;;;;;;;;;23.10;50.60;;;;;;5098182;28;19928;-65
2022/08/09 09:07:30;;;;;;;;;;;23.10;50.60;;;;;;5079969;28;19926;-66
2022/08/09 09:09:57;;;;;;;;;;;23.10;50.60;;;;;;5097492;28;19920;-64
2022/08/09 09:12:26;;;;;;;;;;;23.10;50.60;;;;;;5085563;28;19959;-64
2022/08/09 09:14:53;;;;;;;;;;;23.10;50.60;;;;;;5095806;28;19955;-65
2022/08/09 09:17:20;;;;;;;;;;;23.10;50.60;;;;;;5078067;28;20003;-65
2022/08/09 09:19:47;;;;;;;;;;;23.10;50.50;;;;;;5091135;28;19928;-64
2022/08/09 09:22:14;;;;;;;;;;;23.20;50.50;;;;;;5073398;28;19925;-65
2022/08/09 09:24:41;;;;;;;;;;;23.10;50.50;;;;;;5088993;28;19924;-65
2022/08/09 09:27:09;;;;;;;;;;;23.20;50.50;;;;;;5079302;28;19920;-65
2022/08/09 09:29:37;;;;;;;;;;;23.10;50.40;;;;;;5093376;28;19924;-65
2022/08/09 09:32:04;;;;;;;;;;;23.20;50.50;;;;;;5095549;28;20300;-65
2022/08/09 09:34:31;;;;;;;;;;;23.20;50.40;;;;;;5094153;28;19994;-65
2022/08/09 09:36:58;;;;;;;;;;;23.20;50.40;;;;;;5097910;28;19920;-65
2022/08/09 09:39:25;;;;;;;;;;;23.20;50.40;;;;;;5091374;28;19931;-66
2022/08/09 09:41:52;;;;;;;;;;;23.20;50.40;;;;;;5076057;28;19924;-66
2022/08/09 09:44:25;;;;;;;;;;;23.20;50.40;;;;;;5080465;28;19920;-66
2022/08/09 09:46:56;;;;;;;;;;;23.20;50.30;;;;;;5073225;28;20008;-66
2022/08/09 09:49:23;;;;;;;;;;;23.20;50.30;;;;;;5095958;28;20507;-65
2022/08/09 09:51:50;;;;;;;;;;;23.20;50.30;;;;;;5091442;28;19973;-65
2022/08/09 09:54:18;;;;;;;;;;;23.20;50.30;;;;;;5091239;28;20014;-65
2022/08/09 09:56:45;;;;;;;;;;;23.20;50.30;;;;;;5079829;28;20023;-64
2022/08/09 09:59:12;;;;;;;;;;;23.20;50.30;;;;;;5072221;28;20276;-66
2022/08/09 10:01:41;;;;;;;;;;;23.20;50.20;;;;;;5098707;28;20361;-65
2022/08/09 10:04:14;;;;;;;;;;;23.20;50.20;;;;;;5100395;28;20011;-66
2022/08/09 10:06:41;;;;;;;;;;;23.20;50.20;;;;;;5076636;28;20039;-65
2022/08/09 10:09:08;;;;;;;;;;;23.30;50.30;;;;;;5085790;28;20109;-65
2022/08/09 10:11:35;;;;;;;;;;;23.30;50.30;;;;;;5093359;28;20413;-65
2022/08/09 10:14:02;;;;;;;;;;;23.20;50.20;;;;;;5098424;28;20389;-66
2022/08/09 10:16:29;;;;;;;;;;;23.20;50.20;;;;;;5095554;28;19920;-66
2022/08/09 10:18:58;;;;;;;;;;;23.20;50.10;;;;;;5098795;28;20142;-65
2022/08/09 10:21:26;;;;;;;;;;;23.30;50.20;;;;;;5076517;28;20022;-65
2022/08/09 10:23:53;;;;;;;;;;;23.20;50.10;;;;;;5096628;28;19924;-65
2022/08/09 10:26:21;;;;;;;;;;;23.30;50.20;;;;;;5099827;28;19935;-65
2022/08/09 10:28:48;;;;;;;;;;;23.30;50.10;;;;;;5072744;28;20392;-65
2022/08/09 10:31:15;;;;;;;;;;;23.30;50.10;;;;;;5094124;28;20460;-65
2022/08/09 10:33:42;;;;;;;;;;;23.30;50.00;;;;;;5081662;28;19931;-65
2022/08/09 10:36:10;;;;;;;;;;;23.30;50.00;;;;;;5095293;28;20248;-65
2022/08/09 10:38:38;;;;;;;;;;;23.30;50.10;;;;;;5090543;28;20272;-65
2022/08/09 10:41:04;;;;;;;;;;;23.30;50.10;;;;;;5098359;28;20018;-65
2022/08/09 10:43:32;;;;;;;;;;;23.20;50.00;;;;;;5076754;28;19920;-65
2022/08/09 10:46:01;;;;;;;;;;;23.30;50.00;;;;;;5062210;28;19928;-65
2022/08/09 10:48:30;;;;;;;;;;;23.30;50.00;;;;;;5089665;27;20018;-65
2022/08/09 10:51:08;;;;;;;;;;;23.30;50.00;;;;;;5084009;28;19975;-65
2022/08/09 10:53:42;;;;;;;;;;;23.30;50.00;;;;;;5073586;28;19935;-65
2022/08/09 10:56:16;;;;;;;;;;;23.30;50.00;;;;;;5088573;28;20031;-65
2022/08/09 10:58:43;;;;;;;;;;;23.30;49.90;;;;;;5085557;28;19924;-65
2022/08/09 11:01:25;;;;;;;;;;;23.30;49.80;;;;;;5059861;28;19924;-64
2022/08/09 11:04:10;;;;;;;;;;;23.30;49.80;;;;;;5073421;28;19920;-64
2022/08/09 11:06:37;;;;;;;;;;;23.30;49.70;;;;;;5099876;27;19932;-65
2022/08/09 11:09:05;;;;;;;;;;;23.30;49.60;;;;;;5092274;28;20354;-65
2022/08/09 11:11:46;;;;;;;;;;;23.20;49.60;;;;;;5105508;28;19970;-64
2022/08/09 11:14:29;;;;;;;;;;;23.20;49.60;;;;;;5100618;28;20368;-64
2022/08/09 11:16:56;;;;;;;;;;;23.20;49.60;;;;;;5072716;28;20372;-65
2022/08/09 11:19:38;;;;;;;;;;;23.20;49.60;;;;;;5077290;28;19920;-64
2022/08/09 11:22:07;;;;;;;;;;;23.30;49.70;;;;;;5072309;28;19920;-65
2022/08/09 11:24:52;;;;;;;;;;;23.30;49.70;;;;;;5100310;28;19920;-65
2022/08/09 11:27:30;;;;;;;;;;;23.30;49.70;;;;;;5095618;28;19939;-64
2022/08/09 11:29:57;;;;;;;;;;;23.30;49.60;;;;;;5080707;28;19920;-65
2022/08/09 11:32:42;;;;;;;;;;;23.30;49.60;;;;;;5099378;28;19969;-64
2022/08/09 11:35:11;;;;;;;;;;;23.30;50.30;;;;;;5087460;28;19926;-64
2022/08/09 11:37:38;;;;;;;;;;;23.30;49.60;;;;;;5103724;28;19920;-64
2022/08/09 11:40:05;;;;;;;;;;;23.30;49.60;;;;;;5106061;28;19920;-64
2022/08/09 11:42:45;;;;;;;;;;;23.30;49.70;;;;;;5096948;28;20369;-64
2022/08/09 11:45:19;;;;;;;;;;;23.30;49.60;;;;;;5118769;27;19919;-65
2022/08/09 11:47:46;;;;;;;;;;;23.30;49.60;;;;;;5115597;27;19924;-64
2022/08/09 11:50:13;;;;;;;;;;;23.30;49.60;;;;;;5100264;28;19934;-65
2022/08/09 11:52:54;;;;;;;;;;;23.40;49.70;;;;;;5102500;28;19928;-64
2022/08/09 11:55:32;;;;;;;;;;;23.30;49.60;;;;;;5085597;28;19932;-64
2022/08/09 11:58:00;;;;;;;;;;;23.40;49.70;;;;;;5104199;28;19940;-64
2022/08/09 12:00:27;;;;;;;;;;;23.30;49.60;;;;;;5100065;28;19946;-65
2022/08/09 12:02:54;;;;;;;;;;;23.40;49.70;;;;;;5100710;28;19964;-65
2022/08/09 12:05:21;;;;;;;;;;;23.40;49.60;;;;;;5083789;28;19920;-65
2022/08/09 12:07:47;;;;;;;;;;;23.30;49.60;;;;;;5080964;28;19928;-63
2022/08/09 12:10:14;;;;;;;;;;;23.40;49.60;;;;;;5089354;28;20327;-64
2022/08/09 12:12:45;;;;;;;;;;;23.40;49.60;;;;;;5097767;28;20269;-65
2022/08/09 12:15:23;;;;;;;;;;;23.40;49.60;;;;;;5083828;28;19967;-65
2022/08/09 12:17:50;;;;;;;;;;;23.40;49.50;;;;;;5081572;28;19920;-64
2022/08/09 12:20:18;;;;;;;;;;;23.40;49.50;;;;;;5100806;28;20376;-63
2022/08/09 12:22:44;;;;;;;;;;;23.40;49.50;;;;;;5101486;28;19946;-64
2022/08/09 12:25:12;;;;;;;;;;;23.40;49.50;;;;;;5115809;27;19956;-65
2022/08/09 12:27:39;;;;;;;;;;;23.40;49.50;;;;;;5102240;28;19920;-65
2022/08/09 12:30:06;;;;;;;;;;;23.40;49.50;;;;;;5101208;28;19973;-65
2022/08/09 12:32:34;;;;;;;;;;;23.40;49.50;;;;;;5098821;28;19927;-66
2022/08/09 12:35:02;;;;;;;;;;;23.40;49.50;;;;;;5103395;28;19926;-65
2022/08/09 12:37:32;;;;;;;;;;;23.40;49.50;;;;;;5098514;28;19973;-65
2022/08/09 12:40:00;;;;;;;;;;;23.40;50.10;;;;;;5081583;28;19920;-64
2022/08/09 12:42:26;;;;;;;;;;;23.40;49.50;;;;;;5101289;28;19930;-64
2022/08/09 12:44:53;;;;;;;;;;;23.40;49.50;;;;;;5082573;28;19920;-64
2022/08/09 12:47:20;;;;;;;;;;;23.40;49.50;;;;;;5087390;28;19920;-65
2022/08/09 12:50:16;;;;;;;;;;;23.40;49.50;;;;;;5087779;28;19923;-67
2022/08/09 12:52:39;;;;;;;;;;;23.40;49.40;;;;;;5095938;28;19966;-65
2022/08/09 12:55:06;;;;;;;;;;;23.40;49.40;;;;;;5086418;28;19931;-64
2022/08/09 12:57:37;;;;;;;;;;;23.40;49.40;;;;;;5099519;28;19928;-64
2022/08/09 13:00:11;;;;;;;;;;;23.40;49.40;;;;;;5101546;28;19920;-64
2022/08/09 13:02:51;;;;;;;;;;;23.40;49.40;;;;;;5080776;28;19924;-65
2022/08/09 13:05:19;;;;;;;;;;;23.40;49.40;;;;;;5099016;28;20022;-64
2022/08/09 13:08:05;;;;;;;;;;;23.40;49.40;;;;;;5097504;28;19934;-65
2022/08/09 13:10:32;;;;;;;;;;;23.40;49.40;;;;;;5097750;28;20432;-65
2022/08/09 13:12:59;;;;;;;;;;;23.50;49.50;;;;;;5115339;27;19926;-64
2022/08/09 13:15:25;;;;;;;;;;;23.40;49.40;;;;;;5079431;28;19967;-64
2022/08/09 13:17:52;;;;;;;;;;;23.50;49.50;;;;;;5082123;28;20010;-65
2022/08/09 13:20:32;;;;;;;;;;;23.50;49.50;;;;;;5103361;28;19924;-64
2022/08/09 13:23:00;;;;;;;;;;;23.50;49.40;;;;;;5096703;28;19920;-66
2022/08/09 13:25:37;;;;;;;;;;;23.50;49.40;;;;;;5099171;28;19928;-65
2022/08/09 13:28:08;;;;;;;;;;;23.50;49.30;;;;;;5085388;28;19919;-65
2022/08/09 13:30:35;;;;;;;;;;;23.50;49.30;;;;;;5103997;28;19924;-64
2022/08/09 13:33:02;;;;;;;;;;;23.50;49.20;;;;;;5080662;28;19989;-63
2022/08/09 13:35:28;;;;;;;;;;;23.50;49.20;;;;;;5081575;28;19920;-64
2022/08/09 13:37:56;;;;;;;;;;;23.50;49.20;;;;;;5096284;28;20368;-64
2022/08/09 13:40:23;;;;;;;;;;;23.50;49.20;;;;;;5084387;28;19975;-68
2022/08/09 13:42:50;;;;;;;;;;;23.50;49.20;;;;;;5083010;28;19938;-64
2022/08/09 13:45:17;;;;;;;;;;;23.50;49.20;;;;;;5097259;28;19932;-64
2022/08/09 13:47:43;;;;;;;;;;;23.50;49.20;;;;;;5116534;28;19923;-64
2022/08/09 13:50:11;;;;;;;;;;;23.50;49.10;;;;;;5084162;28;19924;-64
2022/08/09 13:52:37;;;;;;;;;;;23.50;49.20;;;;;;5097667;28;19923;-64
2022/08/09 13:55:07;;;;;;;;;;;23.50;49.10;;;;;;5093022;28;19978;-64
2022/08/09 13:57:34;;;;;;;;;;;23.50;49.10;;;;;;5100599;28;20419;-64
2022/08/09 14:00:01;;;;;;;;;;;23.50;49.10;;;;;;5098015;28;19996;-65
2022/08/09 14:02:28;;;;;;;;;;;23.60;49.10;;;;;;5079268;28;19951;-66
2022/08/09 14:04:55;;;;;;;;;;;23.50;49.00;;;;;;5078216;28;19927;-65
2022/08/09 14:07:21;;;;;;;;;;;23.50;49.00;;;;;;5115053;27;19924;-63
2022/08/09 14:09:50;;;;;;;;;;;23.50;49.00;;;;;;5080015;28;19928;-64
2022/08/09 14:12:18;;;;;;;;;;;23.50;49.00;;;;;;5091961;28;19920;-63
2022/08/09 14:14:45;;;;;;;;;;;23.50;49.00;;;;;;5098035;28;19975;-64
2022/08/09 14:17:12;;;;;;;;;;;23.60;49.10;;;;;;5097467;28;20266;-63
2022/08/09 14:19:38;;;;;;;;;;;23.50;49.00;;;;;;5112670;27;19920;-64
2022/08/09 14:22:05;;;;;;;;;;;23.60;49.10;;;;;;5078861;28;20362;-65